Time;durP1;ratioP1;P1;durP2;ratioP2;P2;SDS_P1;SDS_P2;PMS_P1;PMS_P2;Temp;Humidity;BMP_temperature;BMP_pressure;BME280_temperature;BME280_humidity;BME280_pressure;Samples;Min_cycle;Max_cycle;Signal;HPM_P1;HPM_P2
2022/03/24 00:00:07;;;;;;;30.13;15.82;;;;;;;;;;5054737;28;20028;-70
2022/03/24 00:02:33;;;;;;;30.83;16.98;;;;;;;;;;5052384;28;20459;-70
2022/03/24 00:04:58;;;;;;;31.85;16.92;;;;;;;;;;5054498;28;20025;-70
2022/03/24 00:07:23;;;;;;;35.13;17.40;;;;;;;;;;5053635;28;20041;-70
2022/03/24 00:09:49;;;;;;;34.05;17.42;;;;;;;;;;5053743;28;20036;-71
2022/03/24 00:12:16;;;;;;;34.33;17.25;;;;;;;;;;5053865;28;20047;-65
2022/03/24 00:14:42;;;;;;;33.80;17.10;;;;;;;;;;5054311;28;20068;-71
2022/03/24 00:17:07;;;;;;;35.05;17.58;;;;;;;;;;5054363;28;20459;-70
2022/03/24 00:19:33;;;;;;;30.95;16.90;;;;;;;;;;5053175;28;20068;-69
2022/03/24 00:21:58;;;;;;;33.72;17.70;;;;;;;;;;5053502;28;20508;-70
2022/03/24 00:24:24;;;;;;;35.95;16.92;;;;;;;;;;5053347;28;20032;-69
2022/03/24 00:26:49;;;;;;;30.08;16.92;;;;;;;;;;5053747;28;20033;-71
2022/03/24 00:29:15;;;;;;;32.78;17.17;;;;;;;;;;5053924;28;20082;-70
2022/03/24 00:31:41;;;;;;;34.22;17.13;;;;;;;;;;5051958;28;20083;-70
2022/03/24 00:34:06;;;;;;;35.45;17.38;;;;;;;;;;5053620;28;20032;-70
2022/03/24 00:36:31;;;;;;;32.30;16.98;;;;;;;;;;5051980;28;20037;-71
2022/03/24 00:38:57;;;;;;;31.52;16.80;;;;;;;;;;5053679;28;20533;-70
2022/03/24 00:41:23;;;;;;;36.67;17.42;;;;;;;;;;5052717;28;20029;-71
2022/03/24 00:43:49;;;;;;;34.25;18.73;;;;;;;;;;5053390;28;20115;-71
2022/03/24 00:46:20;;;;;;;32.53;17.73;;;;;;;;;;5053530;28;20044;-71
2022/03/24 00:48:45;;;;;;;33.35;17.40;;;;;;;;;;5053421;28;20025;-71
2022/03/24 00:51:11;;;;;;;30.85;17.67;;;;;;;;;;5053320;28;20033;-70
2022/03/24 00:53:36;;;;;;;32.00;17.55;;;;;;;;;;5052519;28;20472;-70
2022/03/24 00:56:02;;;;;;;32.72;18.15;;;;;;;;;;5053366;28;20115;-71
2022/03/24 00:58:27;;;;;;;36.08;19.15;;;;;;;;;;5052664;28;20063;-70
2022/03/24 01:00:53;;;;;;;35.10;18.42;;;;;;;;;;5053421;28;20036;-70
2022/03/24 01:03:19;;;;;;;32.95;17.38;;;;;;;;;;5052441;28;20028;-70
2022/03/24 01:05:45;;;;;;;33.83;17.98;;;;;;;;;;5051806;28;20051;-70
2022/03/24 01:08:10;;;;;;;35.15;18.60;;;;;;;;;;5052820;28;20115;-71
2022/03/24 01:10:36;;;;;;;33.55;18.08;;;;;;;;;;5067830;28;20378;-70
2022/03/24 01:13:03;;;;;;;33.40;17.88;;;;;;;;;;5052932;28;20526;-70
2022/03/24 01:15:30;;;;;;;35.17;18.45;;;;;;;;;;5052443;28;20025;-71
2022/03/24 01:17:59;;;;;;;33.03;17.17;;;;;;;;;;5052865;28;20041;-70
2022/03/24 01:20:24;;;;;;;34.22;17.55;;;;;;;;;;5052428;28;20107;-69
2022/03/24 01:22:50;;;;;;;34.33;18.27;;;;;;;;;;5051772;28;20191;-70
2022/03/24 01:25:16;;;;;;;30.38;16.98;;;;;;;;;;5052811;28;20451;-69
2022/03/24 01:27:42;;;;;;;32.55;17.92;;;;;;;;;;5052115;28;20032;-71
2022/03/24 01:30:11;;;;;;;33.58;17.88;;;;;;;;;;5068204;28;20032;-70
2022/03/24 01:32:37;;;;;;;31.25;18.30;;;;;;;;;;5051997;28;20029;-70
2022/03/24 01:35:07;;;;;;;34.63;18.80;;;;;;;;;;5052587;28;20466;-70
2022/03/24 01:37:34;;;;;;;33.45;17.05;;;;;;;;;;5052033;28;20378;-70
2022/03/24 01:39:59;;;;;;;33.45;17.70;;;;;;;;;;5052657;28;20033;-71
2022/03/24 01:42:26;;;;;;;36.08;18.35;;;;;;;;;;5050153;28;20041;-70
2022/03/24 01:44:53;;;;;;;31.70;18.13;;;;;;;;;;5052399;28;20028;-69
2022/03/24 01:47:18;;;;;;;32.80;18.77;;;;;;;;;;5052481;28;20025;-69
2022/03/24 01:49:49;;;;;;;35.90;17.73;;;;;;;;;;5052041;28;20043;-70
2022/03/24 01:52:18;;;;;;;35.92;18.02;;;;;;;;;;5067731;28;20396;-69
2022/03/24 01:54:46;;;;;;;40.45;18.30;;;;;;;;;;5051689;28;20116;-71
2022/03/24 01:57:12;;;;;;;35.50;18.90;;;;;;;;;;5052360;28;20079;-69
2022/03/24 01:59:40;;;;;;;38.90;19.35;;;;;;;;;;5051696;28;20029;-71
2022/03/24 02:02:07;;;;;;;35.28;17.13;;;;;;;;;;5052239;28;20089;-69
2022/03/24 02:04:35;;;;;;;43.88;19.10;;;;;;;;;;5051189;28;20108;-70
2022/03/24 02:07:01;;;;;;;35.55;17.85;;;;;;;;;;5052532;28;20052;-69
2022/03/24 02:09:27;;;;;;;34.63;18.33;;;;;;;;;;5050286;28;20355;-69
2022/03/24 02:11:53;;;;;;;35.40;19.38;;;;;;;;;;5052134;28;20417;-69
2022/03/24 02:14:18;;;;;;;34.05;18.42;;;;;;;;;;5050606;28;20569;-70
2022/03/24 02:16:47;;;;;;;38.75;19.42;;;;;;;;;;5050274;28;20035;-70
2022/03/24 02:19:16;;;;;;;37.53;18.40;;;;;;;;;;5052169;28;20033;-70
2022/03/24 02:21:43;;;;;;;36.65;18.58;;;;;;;;;;5049828;28;20557;-70
2022/03/24 02:24:10;;;;;;;34.05;19.27;;;;;;;;;;5051735;28;20104;-71
2022/03/24 02:26:37;;;;;;;40.80;18.88;;;;;;;;;;5050054;28;20032;-71
2022/03/24 02:29:06;;;;;;;34.78;18.52;;;;;;;;;;5052068;28;20025;-69
2022/03/24 02:31:37;;;;;;;34.15;18.33;;;;;;;;;;5051436;28;20052;-71
2022/03/24 02:36:47;;;;;;;34.83;18.00;;;;;;;;;;5055274;28;19916;-71
2022/03/24 02:39:12;;;;;;;34.45;18.65;;;;;;;;;;5056090;28;20080;-70
2022/03/24 02:41:51;;;;;;;39.45;18.80;;;;;;;;;;5055400;28;20028;-70
2022/03/24 02:44:18;;;;;;;34.25;19.10;;;;;;;;;;5055522;28;20467;-70
2022/03/24 02:46:47;;;;;;;36.25;18.52;;;;;;;;;;5053954;28;20251;-70
2022/03/24 02:49:22;;;;;;;38.45;19.17;;;;;;;;;;5054897;28;20356;-70
2022/03/24 02:51:50;;;;;;;36.03;18.20;;;;;;;;;;5055492;28;20128;-70
2022/03/24 02:54:16;;;;;;;38.22;19.77;;;;;;;;;;5055534;28;20037;-69
2022/03/24 02:56:42;;;;;;;33.50;17.70;;;;;;;;;;5054505;28;20371;-70
2022/03/24 02:59:09;;;;;;;35.45;19.02;;;;;;;;;;5055662;28;20047;-71
2022/03/24 03:01:35;;;;;;;34.63;19.17;;;;;;;;;;5055012;28;20025;-71
2022/03/24 03:04:02;;;;;;;37.08;19.67;;;;;;;;;;5055199;28;20025;-70
2022/03/24 03:06:27;;;;;;;35.63;18.63;;;;;;;;;;5054609;28;20025;-68
2022/03/24 03:08:52;;;;;;;38.60;19.35;;;;;;;;;;5055484;28;20382;-70
2022/03/24 03:11:22;;;;;;;37.17;18.80;;;;;;;;;;5055040;28;20484;-70
2022/03/24 03:13:47;;;;;;;40.15;19.70;;;;;;;;;;5054452;28;20455;-70
2022/03/24 03:16:13;;;;;;;35.92;19.20;;;;;;;;;;5054906;28;20086;-70
2022/03/24 03:18:41;;;;;;;36.13;18.88;;;;;;;;;;5054115;28;20036;-70
2022/03/24 03:21:08;;;;;;;36.75;19.05;;;;;;;;;;5055040;28;20036;-71
2022/03/24 03:23:38;;;;;;;37.80;19.83;;;;;;;;;;5054723;28;20140;-69
2022/03/24 03:26:06;;;;;;;36.83;18.70;;;;;;;;;;5053714;28;20371;-71
2022/03/24 03:28:32;;;;;;;35.17;19.50;;;;;;;;;;5053219;28;20391;-69
2022/03/24 03:30:58;;;;;;;36.88;18.88;;;;;;;;;;5055248;28;20025;-70
2022/03/24 03:33:23;;;;;;;37.97;20.10;;;;;;;;;;5053635;28;20032;-71
2022/03/24 03:35:49;;;;;;;36.50;18.67;;;;;;;;;;5054021;28;20028;-71
2022/03/24 03:38:15;;;;;;;39.45;19.83;;;;;;;;;;5054980;28;20043;-70
2022/03/24 03:40:41;;;;;;;37.65;19.52;;;;;;;;;;5054240;28;20037;-71
2022/03/24 03:43:06;;;;;;;36.95;19.38;;;;;;;;;;5054752;28;20033;-71
2022/03/24 03:45:31;;;;;;;37.20;20.45;;;;;;;;;;5053214;28;20116;-71
2022/03/24 03:47:57;;;;;;;44.17;20.85;;;;;;;;;;5054704;28;20079;-71
2022/03/24 03:50:22;;;;;;;37.55;19.98;;;;;;;;;;5054668;28;20114;-70
2022/03/24 03:52:48;;;;;;;38.30;19.95;;;;;;;;;;5053683;28;20259;-69
2022/03/24 03:55:13;;;;;;;34.55;18.45;;;;;;;;;;5054220;28;20394;-70
2022/03/24 03:57:38;;;;;;;38.85;18.98;;;;;;;;;;5053922;28;20065;-70
2022/03/24 04:02:51;;;;;;;39.55;19.83;;;;;;;;;;5053726;28;20536;-69
2022/03/24 04:05:23;;;;;;;36.47;19.13;;;;;;;;;;5054021;28;20124;-70
2022/03/24 04:07:49;;;;;;;39.55;20.80;;;;;;;;;;5053708;28;20235;-69
2022/03/24 04:10:15;;;;;;;37.30;19.73;;;;;;;;;;5054306;28;20398;-70
2022/03/24 04:12:43;;;;;;;39.30;20.27;;;;;;;;;;5052243;28;20040;-68
2022/03/24 04:15:09;;;;;;;34.78;19.15;;;;;;;;;;5054086;28;20094;-69
2022/03/24 04:17:35;;;;;;;38.50;19.85;;;;;;;;;;5053501;28;20497;-70
2022/03/24 04:20:00;;;;;;;37.53;19.55;;;;;;;;;;5054074;28;20029;-70
2022/03/24 04:22:26;;;;;;;39.80;19.92;;;;;;;;;;5054075;28;20056;-70
2022/03/24 04:24:51;;;;;;;40.85;20.63;;;;;;;;;;5053232;28;20114;-70
2022/03/24 04:27:17;;;;;;;40.50;21.15;;;;;;;;;;5053054;28;20045;-70
2022/03/24 04:29:42;;;;;;;38.92;19.77;;;;;;;;;;5053316;28;20036;-69
2022/03/24 04:32:08;;;;;;;35.60;19.60;;;;;;;;;;5053618;28;20029;-69
2022/03/24 04:34:34;;;;;;;40.78;20.83;;;;;;;;;;5051725;28;20055;-69
2022/03/24 04:36:59;;;;;;;39.08;19.40;;;;;;;;;;5053961;28;20029;-70
2022/03/24 04:39:24;;;;;;;38.33;19.95;;;;;;;;;;5053732;28;20029;-70
2022/03/24 04:41:50;;;;;;;40.38;19.88;;;;;;;;;;5053085;28;20303;-71
2022/03/24 04:44:15;;;;;;;39.47;20.27;;;;;;;;;;5053454;28;20032;-70
2022/03/24 04:46:41;;;;;;;39.05;20.77;;;;;;;;;;5052902;28;20025;-69
2022/03/24 04:49:08;;;;;;;40.28;20.33;;;;;;;;;;5053508;28;20036;-69
2022/03/24 04:51:33;;;;;;;42.80;20.20;;;;;;;;;;5051545;28;20029;-69
2022/03/24 04:53:59;;;;;;;42.25;20.65;;;;;;;;;;5053528;28;20156;-70
2022/03/24 04:56:24;;;;;;;38.25;19.83;;;;;;;;;;5052973;28;20112;-70
2022/03/24 04:58:49;;;;;;;49.65;20.65;;;;;;;;;;5051860;28;20029;-70
2022/03/24 05:01:16;;;;;;;38.65;19.73;;;;;;;;;;5052067;28;20036;-70
2022/03/24 05:03:46;;;;;;;39.70;20.83;;;;;;;;;;5051392;28;20037;-70
2022/03/24 05:06:12;;;;;;;40.58;20.77;;;;;;;;;;5053614;28;20036;-69
2022/03/24 05:08:37;;;;;;;38.78;19.83;;;;;;;;;;5052612;28;20033;-71
2022/03/24 05:11:03;;;;;;;38.97;19.95;;;;;;;;;;5053233;28;20508;-70
2022/03/24 05:13:28;;;;;;;41.30;20.83;;;;;;;;;;5053341;28;20091;-70
2022/03/24 05:15:56;;;;;;;41.35;20.55;;;;;;;;;;5051220;28;20087;-70
2022/03/24 05:18:21;;;;;;;37.78;20.70;;;;;;;;;;5053054;28;20379;-69
2022/03/24 05:20:47;;;;;;;40.05;20.48;;;;;;;;;;5052583;28;20467;-70
2022/03/24 05:23:12;;;;;;;40.63;20.33;;;;;;;;;;5051521;28;20057;-68
2022/03/24 05:25:38;;;;;;;38.53;19.83;;;;;;;;;;5052132;28;20025;-70
2022/03/24 05:28:04;;;;;;;39.50;20.27;;;;;;;;;;5052920;28;20036;-69
2022/03/24 05:30:29;;;;;;;40.15;20.25;;;;;;;;;;5052729;28;20033;-69
2022/03/24 05:32:55;;;;;;;37.88;19.73;;;;;;;;;;5050965;28;20398;-70
2022/03/24 05:35:20;;;;;;;43.00;21.08;;;;;;;;;;5052367;28;20036;-70
2022/03/24 05:37:45;;;;;;;40.95;20.55;;;;;;;;;;5052063;28;20106;-69
2022/03/24 05:40:12;;;;;;;40.55;20.85;;;;;;;;;;5052838;28;20043;-70
2022/03/24 05:42:37;;;;;;;40.17;20.73;;;;;;;;;;5052086;28;20029;-69
2022/03/24 05:45:03;;;;;;;41.65;20.67;;;;;;;;;;5051219;28;20033;-69
2022/03/24 05:47:28;;;;;;;43.60;22.05;;;;;;;;;;5051308;28;20057;-70
2022/03/24 05:49:54;;;;;;;40.45;20.98;;;;;;;;;;5050388;28;20350;-70
2022/03/24 05:52:20;;;;;;;43.85;21.58;;;;;;;;;;5052571;28;20029;-71
2022/03/24 05:54:47;;;;;;;39.47;20.17;;;;;;;;;;5051833;28;20107;-70
2022/03/24 05:57:12;;;;;;;41.70;21.33;;;;;;;;;;5052510;28;20078;-71
2022/03/24 05:59:38;;;;;;;44.15;21.20;;;;;;;;;;5051903;28;20037;-68
2022/03/24 06:02:04;;;;;;;44.53;22.48;;;;;;;;;;5052530;28;20035;-70
2022/03/24 06:04:30;;;;;;;44.92;21.95;;;;;;;;;;5052319;28;20406;-71
2022/03/24 06:06:58;;;;;;;42.13;21.27;;;;;;;;;;5051679;28;20235;-70
2022/03/24 06:09:23;;;;;;;47.10;20.73;;;;;;;;;;5052103;28;20025;-71
2022/03/24 06:11:49;;;;;;;41.20;22.23;;;;;;;;;;5051961;28;20117;-70
2022/03/24 06:14:15;;;;;;;46.63;22.95;;;;;;;;;;5051884;28;20045;-71
2022/03/24 06:16:41;;;;;;;45.90;22.27;;;;;;;;;;5051917;28;20074;-71
2022/03/24 06:19:09;;;;;;;45.92;22.15;;;;;;;;;;5050676;28;20167;-69
2022/03/24 06:21:35;;;;;;;48.53;22.73;;;;;;;;;;5051987;28;20045;-71
2022/03/24 06:24:00;;;;;;;45.17;21.83;;;;;;;;;;5051494;28;20112;-69
2022/03/24 06:26:26;;;;;;;45.72;23.33;;;;;;;;;;5051924;28;20029;-71
2022/03/24 06:28:54;;;;;;;45.95;22.17;;;;;;;;;;5051359;28;20454;-69
2022/03/24 06:31:20;;;;;;;47.17;23.17;;;;;;;;;;5050957;28;20118;-70
2022/03/24 06:33:48;;;;;;;48.90;24.48;;;;;;;;;;5033470;28;20067;-72
2022/03/24 06:36:13;;;;;;;45.67;23.73;;;;;;;;;;5050859;28;20120;-70
2022/03/24 06:38:39;;;;;;;47.90;24.13;;;;;;;;;;5051395;28;20155;-68
2022/03/24 06:41:05;;;;;;;49.33;24.05;;;;;;;;;;5052177;28;20021;-69
2022/03/24 06:43:31;;;;;;;50.42;24.25;;;;;;;;;;5051991;28;20035;-70
2022/03/24 06:45:57;;;;;;;52.92;24.42;;;;;;;;;;5050725;28;20437;-68
2022/03/24 06:48:23;;;;;;;45.42;22.98;;;;;;;;;;5051984;28;20061;-70
2022/03/24 06:50:49;;;;;;;52.38;24.38;;;;;;;;;;5051360;28;20025;-70
2022/03/24 06:53:15;;;;;;;42.70;22.90;;;;;;;;;;5050322;28;20037;-70
2022/03/24 06:55:40;;;;;;;47.58;24.25;;;;;;;;;;5050708;28;20102;-68
2022/03/24 06:58:06;;;;;;;45.35;23.80;;;;;;;;;;5051834;28;20025;-71
2022/03/24 07:00:31;;;;;;;48.75;25.05;;;;;;;;;;5050634;28;20459;-71
2022/03/24 07:02:58;;;;;;;48.47;24.40;;;;;;;;;;5051196;28;20390;-70
2022/03/24 07:05:24;;;;;;;47.35;24.65;;;;;;;;;;5051299;28;20380;-69
2022/03/24 07:07:50;;;;;;;46.13;24.08;;;;;;;;;;5050759;28;20497;-69
2022/03/24 07:10:17;;;;;;;54.03;24.85;;;;;;;;;;5051728;28;20064;-70
2022/03/24 07:12:43;;;;;;;45.72;24.95;;;;;;;;;;5050929;28;20032;-68
2022/03/24 07:15:08;;;;;;;43.22;23.08;;;;;;;;;;5051337;28;20516;-69
2022/03/24 07:17:35;;;;;;;46.95;24.15;;;;;;;;;;5049211;28;20482;-71
2022/03/24 07:20:03;;;;;;;47.20;23.35;;;;;;;;;;5051292;28;20135;-71
2022/03/24 07:22:31;;;;;;;45.85;22.73;;;;;;;;;;5055058;28;20172;-70
2022/03/24 07:24:57;;;;;;;48.20;23.38;;;;;;;;;;5054368;28;20060;-69
2022/03/24 07:27:22;;;;;;;45.60;24.02;;;;;;;;;;5053957;28;20468;-70
2022/03/24 07:29:47;;;;;;;49.55;25.15;;;;;;;;;;5053073;28;20040;-70
2022/03/24 07:32:13;;;;;;;49.95;25.40;;;;;;;;;;5053870;28;20025;-69
2022/03/24 07:34:38;;;;;;;56.13;25.20;;;;;;;;;;5053672;28;20064;-69
2022/03/24 07:37:05;;;;;;;55.20;25.25;;;;;;;;;;5053062;28;20029;-68
2022/03/24 07:39:31;;;;;;;47.85;25.45;;;;;;;;;;5054970;28;20037;-69
2022/03/24 07:41:57;;;;;;;48.67;24.48;;;;;;;;;;5054312;28;20037;-69
2022/03/24 07:44:22;;;;;;;54.63;25.98;;;;;;;;;;5054377;28;20086;-69
2022/03/24 07:46:47;;;;;;;44.13;24.63;;;;;;;;;;5054278;28;20029;-69
2022/03/24 07:49:13;;;;;;;50.72;25.15;;;;;;;;;;5054735;28;20388;-68
2022/03/24 07:51:39;;;;;;;48.42;25.08;;;;;;;;;;5054770;28;20064;-69
2022/03/24 07:54:08;;;;;;;44.15;24.13;;;;;;;;;;5053984;28;20108;-70
2022/03/24 07:56:35;;;;;;;42.00;24.55;;;;;;;;;;5054517;28;20029;-70
2022/03/24 07:59:01;;;;;;;45.72;23.98;;;;;;;;;;5052420;28;20112;-69
2022/03/24 08:01:27;;;;;;;43.92;23.95;;;;;;;;;;5054223;28;20116;-69
2022/03/24 08:03:55;;;;;;;46.25;25.75;;;;;;;;;;5053509;28;20057;-70
2022/03/24 08:06:21;;;;;;;48.97;24.55;;;;;;;;;;5054050;28;20025;-68
2022/03/24 08:08:47;;;;;;;54.95;25.58;;;;;;;;;;5054016;28;20048;-68
2022/03/24 08:11:12;;;;;;;49.25;25.27;;;;;;;;;;5054318;28;20029;-70
2022/03/24 08:13:37;;;;;;;47.85;24.85;;;;;;;;;;5054431;28;20028;-70
2022/03/24 08:16:04;;;;;;;48.58;25.70;;;;;;;;;;5053652;28;20270;-70
2022/03/24 08:18:30;;;;;;;47.20;24.05;;;;;;;;;;5054379;28;20029;-70
2022/03/24 08:20:55;;;;;;;48.13;25.13;;;;;;;;;;5053623;28;20458;-71
2022/03/24 08:23:21;;;;;;;49.95;25.35;;;;;;;;;;5053795;28;20049;-70
2022/03/24 08:25:46;;;;;;;47.20;25.63;;;;;;;;;;5053449;28;20025;-68
2022/03/24 08:28:13;;;;;;;51.67;25.98;;;;;;;;;;5052706;28;20032;-68
2022/03/24 08:30:40;;;;;;;52.13;24.98;;;;;;;;;;5036432;28;20033;-68
2022/03/24 08:33:06;;;;;;;49.72;24.50;;;;;;;;;;5052942;28;20459;-70
2022/03/24 08:35:32;;;;;;;51.50;26.10;;;;;;;;;;5053853;28;20115;-70
2022/03/24 08:37:59;;;;;;;47.45;25.58;;;;;;;;;;5053228;28;20108;-70
2022/03/24 08:40:25;;;;;;;47.40;24.80;;;;;;;;;;5053514;28;20029;-69
2022/03/24 08:42:50;;;;;;;50.03;25.10;;;;;;;;;;5053223;28;20029;-68
2022/03/24 08:45:16;;;;;;;47.72;25.98;;;;;;;;;;5051953;28;20047;-69
2022/03/24 08:47:42;;;;;;;48.20;24.92;;;;;;;;;;5053665;28;20033;-69
2022/03/24 08:50:09;;;;;;;46.42;25.38;;;;;;;;;;5052784;28;20029;-70
2022/03/24 08:52:35;;;;;;;45.03;25.25;;;;;;;;;;5053602;28;20036;-70
2022/03/24 08:55:02;;;;;;;50.30;25.77;;;;;;;;;;5052939;28;20029;-70
2022/03/24 08:57:27;;;;;;;51.03;25.45;;;;;;;;;;5053513;28;20036;-69
2022/03/24 09:00:00;;;;;;;46.53;26.73;;;;;;;;;;5051747;28;20025;-71
2022/03/24 09:02:26;;;;;;;51.60;26.70;;;;;;;;;;5053474;28;20029;-70
2022/03/24 09:04:52;;;;;;;48.33;25.65;;;;;;;;;;5052516;28;20035;-68
2022/03/24 09:07:18;;;;;;;49.70;25.75;;;;;;;;;;5053429;28;20112;-70
2022/03/24 09:09:43;;;;;;;48.22;26.63;;;;;;;;;;5053258;28;20025;-71
2022/03/24 09:12:10;;;;;;;47.92;25.45;;;;;;;;;;5052828;28;20115;-70
2022/03/24 09:14:40;;;;;;;48.85;25.58;;;;;;;;;;5053360;28;20032;-71
2022/03/24 09:17:06;;;;;;;43.60;25.53;;;;;;;;;;5051362;28;20147;-70
2022/03/24 09:19:33;;;;;;;48.83;26.13;;;;;;;;;;5053139;28;20254;-70
2022/03/24 09:21:59;;;;;;;45.63;26.13;;;;;;;;;;5052300;28;20052;-70
2022/03/24 09:24:26;;;;;;;50.03;25.75;;;;;;;;;;5051554;28;20482;-70
2022/03/24 09:26:51;;;;;;;45.22;25.88;;;;;;;;;;5052413;28;20057;-70
2022/03/24 09:29:17;;;;;;;43.25;25.85;;;;;;;;;;5051776;28;20057;-70
2022/03/24 09:31:43;;;;;;;46.15;25.73;;;;;;;;;;5052981;28;20029;-70
2022/03/24 09:34:09;;;;;;;47.38;25.17;;;;;;;;;;5051949;28;20037;-69
2022/03/24 09:36:35;;;;;;;47.85;24.58;;;;;;;;;;5051517;28;20037;-71
2022/03/24 09:39:02;;;;;;;46.92;26.08;;;;;;;;;;5052079;28;20118;-70
2022/03/24 09:41:30;;;;;;;44.85;24.90;;;;;;;;;;5052760;28;20029;-70
2022/03/24 09:43:58;;;;;;;41.90;23.67;;;;;;;;;;5051302;28;20394;-69
2022/03/24 09:46:26;;;;;;;44.60;24.90;;;;;;;;;;5051150;28;20489;-70
2022/03/24 09:48:52;;;;;;;48.70;24.63;;;;;;;;;;5051853;28;20068;-68
2022/03/24 09:51:18;;;;;;;40.08;24.35;;;;;;;;;;5051070;28;20060;-71
2022/03/24 09:53:44;;;;;;;43.83;25.27;;;;;;;;;;5052561;28;20025;-70
2022/03/24 09:56:09;;;;;;;35.35;21.27;;;;;;;;;;5051407;28;20533;-69
2022/03/24 09:58:34;;;;;;;39.25;21.92;;;;;;;;;;5052142;28;20029;-70
2022/03/24 10:01:01;;;;;;;36.83;22.85;;;;;;;;;;5052067;28;20029;-70
2022/03/24 10:03:26;;;;;;;41.35;23.17;;;;;;;;;;5052281;28;20036;-70
2022/03/24 10:05:58;;;;;;;39.08;23.88;;;;;;;;;;5051535;28;20032;-70
2022/03/24 10:08:25;;;;;;;43.63;24.13;;;;;;;;;;5052506;28;20032;-70
2022/03/24 10:10:56;;;;;;;42.13;23.88;;;;;;;;;;5052200;28;20033;-65
2022/03/24 10:13:53;;;;;;;41.00;24.08;;;;;;;;;;5051983;28;20446;-70
2022/03/24 10:16:33;;;;;;;39.10;23.00;;;;;;;;;;5050838;28;20048;-70
2022/03/24 10:19:07;;;;;;;42.58;23.75;;;;;;;;;;5051319;28;20159;-69
2022/03/24 10:21:38;;;;;;;39.88;22.88;;;;;;;;;;5050669;28;20595;-69
2022/03/24 10:24:21;;;;;;;38.55;23.98;;;;;;;;;;5051636;28;20041;-69
2022/03/24 10:27:02;;;;;;;44.45;25.15;;;;;;;;;;5052085;28;20040;-69
2022/03/24 10:29:28;;;;;;;;;;;;;;;;;;5052707;28;20037;-68
2022/03/24 10:32:02;;;;;;;32.78;20.08;;;;;;;;;;5051459;28;19915;-69
2022/03/24 10:34:30;;;;;;;33.40;21.08;;;;;;;;;;5050688;28;20025;-69
2022/03/24 10:36:56;;;;;;;34.90;20.38;;;;;;;;;;5051196;28;20048;-69
2022/03/24 10:39:26;;;;;;;33.20;20.25;;;;;;;;;;5052233;28;20029;-70
2022/03/24 10:41:51;;;;;;;33.13;19.83;;;;;;;;;;5051878;28;20037;-69
2022/03/24 10:44:17;;;;;;;35.42;21.13;;;;;;;;;;5051162;28;20028;-71
2022/03/24 10:46:43;;;;;;;35.42;20.70;;;;;;;;;;5051830;28;20033;-70
2022/03/24 10:49:17;;;;;;;35.28;20.92;;;;;;;;;;5051190;28;20382;-70
2022/03/24 10:51:44;;;;;;;35.63;21.80;;;;;;;;;;5051767;28;20497;-69
2022/03/24 10:54:29;;;;;;;37.13;22.08;;;;;;;;;;5051339;28;20064;-70
2022/03/24 10:57:03;;;;;;;39.20;22.55;;;;;;;;;;5054495;28;20029;-68
2022/03/24 10:59:34;;;;;;;38.03;23.08;;;;;;;;;;5056028;28;20087;-70
2022/03/24 11:02:01;;;;;;;37.00;23.20;;;;;;;;;;5054791;28;20112;-69
2022/03/24 11:04:26;;;;;;;39.85;24.42;;;;;;;;;;5055469;28;20037;-69
2022/03/24 11:06:52;;;;;;;40.15;23.55;;;;;;;;;;5055362;28;20086;-68
2022/03/24 11:09:23;;;;;;;40.97;23.65;;;;;;;;;;5054816;28;20025;-69
2022/03/24 11:12:08;;;;;;;40.83;24.00;;;;;;;;;;5054869;28;20065;-68
2022/03/24 11:14:39;;;;;;;38.55;22.55;;;;;;;;;;5055497;28;20195;-67
2022/03/24 11:17:05;;;;;;;37.83;23.92;;;;;;;;;;5054767;28;20112;-67
2022/03/24 11:19:32;;;;;;;36.92;23.45;;;;;;;;;;5053860;28;20104;-69
2022/03/24 11:21:58;;;;;;;46.13;23.88;;;;;;;;;;5054443;28;20047;-68
2022/03/24 11:24:24;;;;;;;36.75;24.00;;;;;;;;;;5055211;28;20033;-67
2022/03/24 11:26:51;;;;;;;36.25;24.13;;;;;;;;;;5054665;28;20044;-68
2022/03/24 11:29:16;;;;;;;41.47;25.45;;;;;;;;;;5053171;28;20040;-68
2022/03/24 11:31:46;;;;;;;39.05;25.50;;;;;;;;;;5053779;28;20078;-68
2022/03/24 11:34:11;;;;;;;40.70;25.00;;;;;;;;;;5052783;28;20037;-68
2022/03/24 11:36:37;;;;;;;37.42;24.58;;;;;;;;;;5054894;28;20057;-67
2022/03/24 11:39:09;;;;;;;37.55;25.17;;;;;;;;;;5054409;28;20060;-69
2022/03/24 11:41:48;;;;;;;34.60;25.15;;;;;;;;;;5054719;28;20031;-67
2022/03/24 11:44:39;;;;;;;35.92;24.90;;;;;;;;;;5052997;28;20163;-68
2022/03/24 11:47:12;;;;;;;36.55;24.55;;;;;;;;;;5052606;28;20036;-67
2022/03/24 11:49:38;;;;;;;36.15;24.63;;;;;;;;;;5054846;28;20172;-69
2022/03/24 11:52:04;;;;;;;34.47;24.42;;;;;;;;;;5053887;28;20072;-68
2022/03/24 11:54:34;;;;;;;37.15;24.55;;;;;;;;;;5054655;28;20450;-68
2022/03/24 11:57:25;;;;;;;33.45;24.23;;;;;;;;;;5052289;28;20031;-67
2022/03/24 12:00:13;;;;;;;33.72;24.10;;;;;;;;;;5054567;28;20025;-70
2022/03/24 12:02:48;;;;;;;34.47;25.02;;;;;;;;;;5052909;28;20040;-69
2022/03/24 12:05:14;;;;;;;34.70;24.45;;;;;;;;;;5036181;28;20153;-68
2022/03/24 12:07:40;;;;;;;29.15;22.73;;;;;;;;;;5053594;28;20125;-68
2022/03/24 12:10:11;;;;;;;32.65;22.60;;;;;;;;;;5052146;28;20044;-68
2022/03/24 12:12:38;;;;;;;35.28;23.85;;;;;;;;;;5054509;28;20029;-69
2022/03/24 12:15:24;;;;;;;35.88;25.58;;;;;;;;;;5036195;28;20433;-70
2022/03/24 12:18:07;;;;;;;36.85;26.15;;;;;;;;;;5053822;28;20418;-69
2022/03/24 12:20:44;;;;;;;37.55;25.77;;;;;;;;;;5054108;28;20079;-70
2022/03/24 12:23:10;;;;;;;36.17;25.88;;;;;;;;;;5053579;28;20048;-69
2022/03/24 12:25:36;;;;;;;35.22;24.30;;;;;;;;;;5069135;28;20086;-68
2022/03/24 12:28:12;;;;;;;30.67;23.90;;;;;;;;;;5053320;28;20029;-67
2022/03/24 12:30:53;;;;;;;34.15;24.60;;;;;;;;;;5054211;28;20094;-68
2022/03/24 12:33:39;;;;;;;31.02;24.77;;;;;;;;;;5051860;28;20222;-68
2022/03/24 12:36:06;;;;;;;30.92;24.00;;;;;;;;;;5053176;28;20463;-69
2022/03/24 12:38:34;;;;;;;32.88;23.73;;;;;;;;;;5054011;28;20028;-69
2022/03/24 12:41:02;;;;;;;29.65;24.27;;;;;;;;;;5052164;28;20067;-62
2022/03/24 12:43:28;;;;;;;33.58;23.55;;;;;;;;;;5053925;28;20033;-69
2022/03/24 12:46:21;;;;;;;28.83;22.88;;;;;;;;;;5053520;28;20528;-69
2022/03/24 12:48:47;;;;;;;29.08;23.33;;;;;;;;;;5053766;28;20029;-69
2022/03/24 12:51:22;;;;;;;30.95;23.70;;;;;;;;;;5052996;28;20040;-70
2022/03/24 12:53:59;;;;;;;32.78;23.42;;;;;;;;;;5053677;28;20033;-69
2022/03/24 12:56:29;;;;;;;29.77;23.58;;;;;;;;;;5053448;28;20025;-69
2022/03/24 12:59:05;;;;;;;32.47;24.27;;;;;;;;;;5052962;28;20039;-70
2022/03/24 13:01:35;;;;;;;30.83;23.77;;;;;;;;;;5053213;28;20036;-70
2022/03/24 13:04:05;;;;;;;31.60;23.93;;;;;;;;;;5053043;28;20037;-64
2022/03/24 13:06:33;;;;;;;;;;;;;;;;;;5053577;28;20764;-69
2022/03/24 13:09:17;;;;;;;37.10;24.15;;;;;;;;;;5053044;28;19912;-71
2022/03/24 13:12:03;;;;;;;36.05;24.92;;;;;;;;;;5053229;28;20060;-71
2022/03/24 13:14:30;;;;;;;34.47;24.17;;;;;;;;;;5053017;28;20052;-70
2022/03/24 13:17:10;;;;;;;36.65;25.63;;;;;;;;;;5052765;28;20474;-70
2022/03/24 13:19:37;;;;;;;36.22;25.98;;;;;;;;;;5052334;28;20483;-70
2022/03/24 13:22:13;;;;;;;31.80;25.60;;;;;;;;;;5051994;28;20045;-68
2022/03/24 13:24:38;;;;;;;33.42;25.38;;;;;;;;;;5052971;28;20055;-69
2022/03/24 13:27:04;;;;;;;33.55;24.92;;;;;;;;;;5052149;28;20051;-69
2022/03/24 13:29:46;;;;;;;32.30;26.08;;;;;;;;;;5052994;28;20041;-71
2022/03/24 13:32:13;;;;;;;33.17;24.80;;;;;;;;;;5067568;28;20036;-69
2022/03/24 13:34:39;;;;;;;35.38;25.35;;;;;;;;;;5052883;28;20029;-69
2022/03/24 13:37:12;;;;;;;35.47;26.33;;;;;;;;;;5052038;28;20041;-69
2022/03/24 13:39:38;;;;;;;34.47;25.63;;;;;;;;;;5052250;28;20057;-69
2022/03/24 13:42:07;;;;;;;34.25;25.65;;;;;;;;;;5052063;28;20028;-64
2022/03/24 13:44:34;;;;;;;34.88;25.15;;;;;;;;;;5052424;28;20074;-70
2022/03/24 13:46:59;;;;;;;33.30;25.67;;;;;;;;;;5052481;28;20041;-70
2022/03/24 13:49:27;;;;;;;34.60;25.75;;;;;;;;;;5051936;28;20032;-69
2022/03/24 13:51:53;;;;;;;33.50;24.83;;;;;;;;;;5052476;28;20033;-71
2022/03/24 13:54:19;;;;;;;32.10;25.92;;;;;;;;;;5050605;28;20156;-70
2022/03/24 13:56:45;;;;;;;35.13;24.75;;;;;;;;;;5052384;28;20036;-69
2022/03/24 13:59:10;;;;;;;32.85;25.30;;;;;;;;;;5050445;28;20028;-71
2022/03/24 14:01:36;;;;;;;33.13;24.35;;;;;;;;;;5052352;28;20029;-70
2022/03/24 14:04:15;;;;;;;31.95;24.92;;;;;;;;;;5052399;28;20045;-69
2022/03/24 14:06:40;;;;;;;33.38;25.85;;;;;;;;;;5051859;28;20025;-70
2022/03/24 14:09:05;;;;;;;33.58;25.08;;;;;;;;;;5051624;28;20043;-68
2022/03/24 14:11:31;;;;;;;33.20;24.67;;;;;;;;;;5052303;28;20060;-69
2022/03/24 14:14:00;;;;;;;33.08;25.92;;;;;;;;;;5050924;28;20115;-69
2022/03/24 14:16:31;;;;;;;32.53;25.60;;;;;;;;;;5051389;28;20068;-71
2022/03/24 14:19:03;;;;;;;36.85;25.00;;;;;;;;;;5051899;28;20035;-70
2022/03/24 14:21:58;;;;;;;37.20;25.90;;;;;;;;;;5051493;28;20029;-71
2022/03/24 14:24:45;;;;;;;33.35;24.17;;;;;;;;;;5051253;28;20037;-70
2022/03/24 14:27:19;;;;;;;32.08;24.48;;;;;;;;;;5051612;28;20036;-70